sensor_id;sensor_type;location;lat;lon;timestamp;pressure;altitude;pressure_sealevel;temperature;humidity
59367;BME280;45163;47.690;11.770;2022-10-17T00:00:28;94006.72;;;9.48;100.00
59367;BME280;45163;47.690;11.770;2022-10-17T00:02:54;94007.22;;;9.70;100.00
59367;BME280;45163;47.690;11.770;2022-10-17T00:05:21;94000.94;;;9.73;100.00
59367;BME280;45163;47.690;11.770;2022-10-17T00:07:47;94009.28;;;9.63;100.00
59367;BME280;45163;47.690;11.770;2022-10-17T00:10:13;94004.94;;;9.38;100.00
59367;BME280;45163;47.690;11.770;2022-10-17T00:12:39;94003.06;;;9.32;100.00
59367;BME280;45163;47.690;11.770;2022-10-17T00:15:06;94003.72;;;9.12;100.00
59367;BME280;45163;47.690;11.770;2022-10-17T00:17:32;94005.28;;;9.10;100.00
59367;BME280;45163;47.690;11.770;2022-10-17T00:20:00;94011.72;;;9.23;100.00
59367;BME280;45163;47.690;11.770;2022-10-17T00:22:27;94009.06;;;9.50;100.00
59367;BME280;45163;47.690;11.770;2022-10-17T00:24:53;94012.72;;;9.67;100.00
59367;BME280;45163;47.690;11.770;2022-10-17T00:27:18;94020.94;;;9.63;100.00
59367;BME280;45163;47.690;11.770;2022-10-17T00:29:51;94010.97;;;9.53;100.00
59367;BME280;45163;47.690;11.770;2022-10-17T00:32:18;94009.91;;;9.43;100.00
59367;BME280;45163;47.690;11.770;2022-10-17T00:34:44;94015.41;;;9.40;100.00
59367;BME280;45163;47.690;11.770;2022-10-17T00:37:10;94016.56;;;9.42;100.00
59367;BME280;45163;47.690;11.770;2022-10-17T00:39:37;94024.34;;;9.40;100.00
59367;BME280;45163;47.690;11.770;2022-10-17T00:42:03;94026.44;;;9.60;100.00
59367;BME280;45163;47.690;11.770;2022-10-17T00:47:02;94027.41;;;9.46;100.00
59367;BME280;45163;47.690;11.770;2022-10-17T00:49:33;94022.78;;;9.43;100.00
59367;BME280;45163;47.690;11.770;2022-10-17T00:52:03;94021.28;;;9.38;100.00
59367;BME280;45163;47.690;11.770;2022-10-17T00:54:33;94028.81;;;9.27;100.00
59367;BME280;45163;47.690;11.770;2022-10-17T00:57:00;94020.78;;;9.16;100.00
59367;BME280;45163;47.690;11.770;2022-10-17T00:59:27;94020.84;;;9.09;100.00
59367;BME280;45163;47.690;11.770;2022-10-17T01:02:10;94023.28;;;9.04;100.00
59367;BME280;45163;47.690;11.770;2022-10-17T01:04:39;94023.22;;;9.07;100.00
59367;BME280;45163;47.690;11.770;2022-10-17T01:07:06;94028.75;;;9.00;100.00
59367;BME280;45163;47.690;11.770;2022-10-17T01:09:32;94031.47;;;9.00;100.00
59367;BME280;45163;47.690;11.770;2022-10-17T01:26:18;94036.84;;;9.07;100.00
59367;BME280;45163;47.690;11.770;2022-10-17T01:31:48;94040.38;;;9.04;100.00
59367;BME280;45163;47.690;11.770;2022-10-17T01:34:31;94033.47;;;8.96;100.00
59367;BME280;45163;47.690;11.770;2022-10-17T01:37:32;94030.06;;;8.85;100.00
59367;BME280;45163;47.690;11.770;2022-10-17T01:45:16;94031.69;;;8.82;100.00
59367;BME280;45163;47.690;11.770;2022-10-17T01:47:46;94034.28;;;8.93;100.00
59367;BME280;45163;47.690;11.770;2022-10-17T01:50:25;94032.75;;;8.88;100.00
59367;BME280;45163;47.690;11.770;2022-10-17T01:52:58;94028.47;;;8.91;100.00
59367;BME280;45163;47.690;11.770;2022-10-17T01:55:36;94026.13;;;8.89;100.00
59367;BME280;45163;47.690;11.770;2022-10-17T01:58:09;94026.13;;;8.89;100.00
59367;BME280;45163;47.690;11.770;2022-10-17T02:00:38;94030.84;;;8.85;100.00
59367;BME280;45163;47.690;11.770;2022-10-17T02:03:11;94042.94;;;8.81;100.00
59367;BME280;45163;47.690;11.770;2022-10-17T02:05:40;94036.69;;;8.84;100.00
59367;BME280;45163;47.690;11.770;2022-10-17T02:08:07;94038.31;;;8.78;100.00
59367;BME280;45163;47.690;11.770;2022-10-17T02:11:02;94035.59;;;8.78;100.00
59367;BME280;45163;47.690;11.770;2022-10-17T02:14:21;94040.13;;;8.91;100.00
59367;BME280;45163;47.690;11.770;2022-10-17T02:25:47;94037.91;;;9.17;100.00
59367;BME280;45163;47.690;11.770;2022-10-17T02:31:06;94033.72;;;9.09;100.00
59367;BME280;45163;47.690;11.770;2022-10-17T02:33:47;94040.16;;;9.22;100.00
59367;BME280;45163;47.690;11.770;2022-10-17T02:36:18;94039.13;;;9.12;100.00
59367;BME280;45163;47.690;11.770;2022-10-17T02:38:47;94029.50;;;9.35;100.00
59367;BME280;45163;47.690;11.770;2022-10-17T02:41:15;94037.47;;;9.80;100.00
59367;BME280;45163;47.690;11.770;2022-10-17T02:43:44;94033.59;;;9.77;100.00
59367;BME280;45163;47.690;11.770;2022-10-17T02:46:14;94027.03;;;9.75;100.00
59367;BME280;45163;47.690;11.770;2022-10-17T02:49:06;94036.84;;;9.68;100.00
59367;BME280;45163;47.690;11.770;2022-10-17T02:54:31;94036.84;;;9.38;100.00
59367;BME280;45163;47.690;11.770;2022-10-17T02:57:08;94027.28;;;9.26;100.00
59367;BME280;45163;47.690;11.770;2022-10-17T02:59:35;94034.38;;;9.20;100.00
59367;BME280;45163;47.690;11.770;2022-10-17T03:02:04;94040.53;;;9.24;100.00
59367;BME280;45163;47.690;11.770;2022-10-17T03:04:30;94038.41;;;9.05;100.00
59367;BME280;45163;47.690;11.770;2022-10-17T03:06:56;94043.81;;;8.74;100.00
59367;BME280;45163;47.690;11.770;2022-10-17T03:09:22;94044.22;;;8.69;100.00
59367;BME280;45163;47.690;11.770;2022-10-17T03:11:48;94042.81;;;8.57;100.00
59367;BME280;45163;47.690;11.770;2022-10-17T03:14:14;94043.59;;;8.54;100.00
59367;BME280;45163;47.690;11.770;2022-10-17T03:16:40;94058.78;;;8.52;100.00
59367;BME280;45163;47.690;11.770;2022-10-17T03:19:05;94045.88;;;8.59;100.00
59367;BME280;45163;47.690;11.770;2022-10-17T03:21:32;94059.06;;;8.64;100.00
59367;BME280;45163;47.690;11.770;2022-10-17T03:24:01;94053.25;;;8.62;100.00
59367;BME280;45163;47.690;11.770;2022-10-17T03:26:27;94049.63;;;8.72;100.00
59367;BME280;45163;47.690;11.770;2022-10-17T03:28:54;94046.94;;;8.69;100.00
59367;BME280;45163;47.690;11.770;2022-10-17T03:31:21;94046.84;;;8.80;100.00
59367;BME280;45163;47.690;11.770;2022-10-17T03:33:47;94053.81;;;9.18;100.00
59367;BME280;45163;47.690;11.770;2022-10-17T03:36:15;94047.97;;;9.20;100.00
59367;BME280;45163;47.690;11.770;2022-10-17T03:38:43;94051.81;;;9.22;100.00
59367;BME280;45163;47.690;11.770;2022-10-17T03:41:09;94041.63;;;9.30;100.00
59367;BME280;45163;47.690;11.770;2022-10-17T03:43:35;94047.53;;;9.25;100.00
59367;BME280;45163;47.690;11.770;2022-10-17T03:46:02;94046.41;;;9.19;100.00
59367;BME280;45163;47.690;11.770;2022-10-17T03:48:29;94049.84;;;9.27;100.00
59367;BME280;45163;47.690;11.770;2022-10-17T03:51:00;94046.56;;;9.39;100.00
59367;BME280;45163;47.690;11.770;2022-10-17T03:53:26;94054.47;;;9.30;100.00
59367;BME280;45163;47.690;11.770;2022-10-17T03:55:53;94052.34;;;9.10;100.00
59367;BME280;45163;47.690;11.770;2022-10-17T03:58:19;94043.94;;;8.97;100.00
59367;BME280;45163;47.690;11.770;2022-10-17T04:00:45;94050.31;;;8.84;100.00
59367;BME280;45163;47.690;11.770;2022-10-17T04:03:11;94053.44;;;8.82;100.00
59367;BME280;45163;47.690;11.770;2022-10-17T04:05:37;94051.09;;;8.84;100.00
59367;BME280;45163;47.690;11.770;2022-10-17T04:08:03;94056.59;;;8.77;100.00
59367;BME280;45163;47.690;11.770;2022-10-17T04:10:28;94064.00;;;9.11;100.00
59367;BME280;45163;47.690;11.770;2022-10-17T04:12:54;94057.66;;;9.55;100.00
59367;BME280;45163;47.690;11.770;2022-10-17T04:15:20;94052.78;;;9.70;100.00
59367;BME280;45163;47.690;11.770;2022-10-17T04:17:46;94052.34;;;9.75;100.00
59367;BME280;45163;47.690;11.770;2022-10-17T04:20:12;94051.19;;;9.72;100.00
59367;BME280;45163;47.690;11.770;2022-10-17T04:22:38;94043.34;;;9.78;100.00
59367;BME280;45163;47.690;11.770;2022-10-17T04:25:08;94046.25;;;9.64;100.00
59367;BME280;45163;47.690;11.770;2022-10-17T04:27:34;94055.97;;;9.34;100.00
59367;BME280;45163;47.690;11.770;2022-10-17T04:29:59;94048.38;;;9.18;100.00
59367;BME280;45163;47.690;11.770;2022-10-17T04:32:25;94053.28;;;8.96;100.00
59367;BME280;45163;47.690;11.770;2022-10-17T04:34:51;94054.56;;;8.85;100.00
59367;BME280;45163;47.690;11.770;2022-10-17T04:37:17;94056.53;;;8.84;100.00
59367;BME280;45163;47.690;11.770;2022-10-17T04:39:43;94054.59;;;8.81;100.00
59367;BME280;45163;47.690;11.770;2022-10-17T04:42:09;94054.63;;;8.78;100.00
59367;BME280;45163;47.690;11.770;2022-10-17T04:44:35;94061.75;;;8.68;100.00
59367;BME280;45163;47.690;11.770;2022-10-17T04:47:02;94066.16;;;8.55;100.00
59367;BME280;45163;47.690;11.770;2022-10-17T04:49:28;94061.22;;;8.35;100.00
59367;BME280;45163;47.690;11.770;2022-10-17T04:51:54;94065.28;;;8.16;100.00
59367;BME280;45163;47.690;11.770;2022-10-17T04:54:20;94058.66;;;8.17;100.00
59367;BME280;45163;47.690;11.770;2022-10-17T04:56:46;94066.63;;;8.46;100.00
59367;BME280;45163;47.690;11.770;2022-10-17T04:59:13;94073.50;;;8.58;100.00
59367;BME280;45163;47.690;11.770;2022-10-17T05:01:39;94078.53;;;8.59;100.00
59367;BME280;45163;47.690;11.770;2022-10-17T05:04:05;94071.19;;;8.56;100.00
59367;BME280;45163;47.690;11.770;2022-10-17T05:06:31;94073.44;;;8.65;100.00
59367;BME280;45163;47.690;11.770;2022-10-17T05:08:58;94073.00;;;8.70;100.00
59367;BME280;45163;47.690;11.770;2022-10-17T05:11:26;94072.66;;;8.64;100.00
59367;BME280;45163;47.690;11.770;2022-10-17T05:13:55;94064.84;;;8.70;100.00
59367;BME280;45163;47.690;11.770;2022-10-17T05:16:22;94065.25;;;8.65;100.00
59367;BME280;45163;47.690;11.770;2022-10-17T05:18:54;94067.31;;;8.54;100.00
59367;BME280;45163;47.690;11.770;2022-10-17T05:21:22;94063.91;;;8.42;100.00
59367;BME280;45163;47.690;11.770;2022-10-17T05:23:49;94057.72;;;8.35;100.00
59367;BME280;45163;47.690;11.770;2022-10-17T05:26:15;94072.03;;;8.50;100.00
59367;BME280;45163;47.690;11.770;2022-10-17T05:28:42;94065.47;;;8.43;100.00
59367;BME280;45163;47.690;11.770;2022-10-17T05:31:08;94074.78;;;8.46;100.00
59367;BME280;45163;47.690;11.770;2022-10-17T05:33:35;94078.25;;;8.46;100.00
59367;BME280;45163;47.690;11.770;2022-10-17T05:36:01;94073.38;;;8.72;100.00
59367;BME280;45163;47.690;11.770;2022-10-17T05:38:28;94083.22;;;8.59;100.00
59367;BME280;45163;47.690;11.770;2022-10-17T05:41:00;94072.00;;;8.53;100.00
59367;BME280;45163;47.690;11.770;2022-10-17T05:43:27;94084.47;;;8.47;100.00
59367;BME280;45163;47.690;11.770;2022-10-17T05:45:54;94083.41;;;8.37;100.00
59367;BME280;45163;47.690;11.770;2022-10-17T05:48:21;94091.91;;;8.39;100.00
59367;BME280;45163;47.690;11.770;2022-10-17T05:50:47;94092.88;;;8.63;100.00
59367;BME280;45163;47.690;11.770;2022-10-17T05:53:14;94092.56;;;8.58;100.00
59367;BME280;45163;47.690;11.770;2022-10-17T05:55:40;94098.84;;;8.47;100.00
59367;BME280;45163;47.690;11.770;2022-10-17T05:58:06;94096.53;;;8.46;100.00
59367;BME280;45163;47.690;11.770;2022-10-17T06:00:32;94108.59;;;8.45;100.00
59367;BME280;45163;47.690;11.770;2022-10-17T06:02:58;94109.38;;;8.45;100.00
59367;BME280;45163;47.690;11.770;2022-10-17T06:05:24;94107.28;;;8.60;100.00
59367;BME280;45163;47.690;11.770;2022-10-17T06:07:50;94106.03;;;8.72;100.00
59367;BME280;45163;47.690;11.770;2022-10-17T06:10:18;94109.44;;;8.83;100.00
59367;BME280;45163;47.690;11.770;2022-10-17T06:12:44;94106.31;;;8.85;100.00
59367;BME280;45163;47.690;11.770;2022-10-17T06:15:11;94103.78;;;9.05;100.00
59367;BME280;45163;47.690;11.770;2022-10-17T06:17:37;94108.28;;;8.81;100.00
59367;BME280;45163;47.690;11.770;2022-10-17T06:20:04;94110.66;;;8.79;100.00
59367;BME280;45163;47.690;11.770;2022-10-17T06:22:30;94114.97;;;8.72;100.00
59367;BME280;45163;47.690;11.770;2022-10-17T06:24:56;94111.91;;;8.67;100.00
59367;BME280;45163;47.690;11.770;2022-10-17T06:27:22;94119.59;;;8.76;100.00
59367;BME280;45163;47.690;11.770;2022-10-17T06:29:48;94119.91;;;8.85;100.00
59367;BME280;45163;47.690;11.770;2022-10-17T06:32:15;94124.25;;;8.79;100.00
59367;BME280;45163;47.690;11.770;2022-10-17T06:34:41;94126.59;;;8.77;100.00
59367;BME280;45163;47.690;11.770;2022-10-17T06:37:07;94133.13;;;8.86;100.00
59367;BME280;45163;47.690;11.770;2022-10-17T06:39:34;94134.56;;;9.36;100.00
59367;BME280;45163;47.690;11.770;2022-10-17T06:42:01;94130.88;;;9.84;100.00
59367;BME280;45163;47.690;11.770;2022-10-17T06:44:27;94130.91;;;10.11;100.00
59367;BME280;45163;47.690;11.770;2022-10-17T06:46:57;94128.38;;;10.23;100.00
59367;BME280;45163;47.690;11.770;2022-10-17T06:49:23;94133.09;;;10.50;100.00
59367;BME280;45163;47.690;11.770;2022-10-17T06:51:49;94133.34;;;10.59;100.00
59367;BME280;45163;47.690;11.770;2022-10-17T06:54:15;94130.38;;;10.73;100.00
59367;BME280;45163;47.690;11.770;2022-10-17T06:56:41;94133.72;;;10.85;100.00
59367;BME280;45163;47.690;11.770;2022-10-17T06:59:08;94136.28;;;10.95;100.00
59367;BME280;45163;47.690;11.770;2022-10-17T07:01:35;94135.13;;;10.93;100.00
59367;BME280;45163;47.690;11.770;2022-10-17T07:04:01;94137.31;;;10.78;100.00
59367;BME280;45163;47.690;11.770;2022-10-17T07:06:27;94138.22;;;10.71;100.00
59367;BME280;45163;47.690;11.770;2022-10-17T07:08:53;94148.38;;;10.71;100.00
59367;BME280;45163;47.690;11.770;2022-10-17T07:11:21;94155.38;;;10.72;100.00
59367;BME280;45163;47.690;11.770;2022-10-17T07:13:47;94148.59;;;10.57;100.00
59367;BME280;45163;47.690;11.770;2022-10-17T07:16:14;94157.81;;;10.66;100.00
59367;BME280;45163;47.690;11.770;2022-10-17T07:18:41;94152.13;;;10.81;100.00
59367;BME280;45163;47.690;11.770;2022-10-17T07:21:07;94154.69;;;10.91;100.00
59367;BME280;45163;47.690;11.770;2022-10-17T07:23:35;94156.34;;;11.09;100.00
59367;BME280;45163;47.690;11.770;2022-10-17T07:26:07;94153.84;;;11.18;100.00
59367;BME280;45163;47.690;11.770;2022-10-17T07:28:40;94157.22;;;11.26;100.00
59367;BME280;45163;47.690;11.770;2022-10-17T07:31:18;94159.81;;;11.53;100.00
59367;BME280;45163;47.690;11.770;2022-10-17T07:33:44;94158.00;;;11.66;100.00
59367;BME280;45163;47.690;11.770;2022-10-17T07:36:11;94161.88;;;11.68;100.00
59367;BME280;45163;47.690;11.770;2022-10-17T07:38:37;94158.75;;;11.90;100.00
59367;BME280;45163;47.690;11.770;2022-10-17T07:41:06;94160.97;;;11.95;100.00
59367;BME280;45163;47.690;11.770;2022-10-17T07:43:32;94167.25;;;11.95;100.00
59367;BME280;45163;47.690;11.770;2022-10-17T07:46:00;94153.31;;;12.06;100.00
59367;BME280;45163;47.690;11.770;2022-10-17T07:48:26;94164.53;;;12.12;100.00
59367;BME280;45163;47.690;11.770;2022-10-17T07:50:52;94169.59;;;12.13;100.00
59367;BME280;45163;47.690;11.770;2022-10-17T07:53:18;94166.09;;;12.13;100.00
59367;BME280;45163;47.690;11.770;2022-10-17T07:55:45;94161.66;;;12.19;100.00
59367;BME280;45163;47.690;11.770;2022-10-17T07:58:13;94166.56;;;12.28;100.00
59367;BME280;45163;47.690;11.770;2022-10-17T08:00:39;94159.03;;;12.32;100.00
59367;BME280;45163;47.690;11.770;2022-10-17T08:03:05;94167.88;;;12.39;100.00
59367;BME280;45163;47.690;11.770;2022-10-17T08:05:31;94161.56;;;12.59;100.00
59367;BME280;45163;47.690;11.770;2022-10-17T08:07:57;94167.22;;;12.68;100.00
59367;BME280;45163;47.690;11.770;2022-10-17T08:10:24;94171.75;;;12.75;100.00
59367;BME280;45163;47.690;11.770;2022-10-17T08:12:56;94169.38;;;12.77;100.00
59367;BME280;45163;47.690;11.770;2022-10-17T08:15:24;94159.88;;;12.81;100.00
59367;BME280;45163;47.690;11.770;2022-10-17T08:17:50;94152.94;;;12.77;100.00
59367;BME280;45163;47.690;11.770;2022-10-17T08:20:17;94152.84;;;12.80;100.00
59367;BME280;45163;47.690;11.770;2022-10-17T08:22:50;94155.50;;;13.00;100.00
59367;BME280;45163;47.690;11.770;2022-10-17T08:25:17;94154.97;;;13.21;100.00
59367;BME280;45163;47.690;11.770;2022-10-17T08:27:42;94151.97;;;13.32;100.00
59367;BME280;45163;47.690;11.770;2022-10-17T08:30:09;94146.59;;;13.58;100.00
59367;BME280;45163;47.690;11.770;2022-10-17T08:32:35;94147.03;;;13.85;100.00
59367;BME280;45163;47.690;11.770;2022-10-17T08:35:02;94142.16;;;14.06;100.00
59367;BME280;45163;47.690;11.770;2022-10-17T08:37:28;94137.91;;;14.30;100.00
59367;BME280;45163;47.690;11.770;2022-10-17T08:39:55;94142.00;;;14.51;100.00
59367;BME280;45163;47.690;11.770;2022-10-17T08:48:01;94136.91;;;15.48;100.00
59367;BME280;45163;47.690;11.770;2022-10-17T08:53:03;94129.00;;;16.78;100.00
59367;BME280;45163;47.690;11.770;2022-10-17T08:55:39;94117.94;;;17.74;98.04
59367;BME280;45163;47.690;11.770;2022-10-17T08:58:32;94121.63;;;18.59;93.88
59367;BME280;45163;47.690;11.770;2022-10-17T09:06:32;94112.31;;;21.85;76.49
59367;BME280;45163;47.690;11.770;2022-10-17T09:09:36;94117.53;;;23.08;68.63
59367;BME280;45163;47.690;11.770;2022-10-17T09:12:17;94112.88;;;23.91;56.00
59367;BME280;45163;47.690;11.770;2022-10-17T09:17:53;94101.84;;;25.42;46.02
59367;BME280;45163;47.690;11.770;2022-10-17T09:20:27;94101.63;;;26.81;48.21
59367;BME280;45163;47.690;11.770;2022-10-17T09:22:58;94110.19;;;27.49;45.09
59367;BME280;45163;47.690;11.770;2022-10-17T09:25:26;94104.69;;;27.38;39.68
59367;BME280;45163;47.690;11.770;2022-10-17T09:28:05;94100.63;;;27.08;39.09
59367;BME280;45163;47.690;11.770;2022-10-17T09:30:44;94093.31;;;28.17;39.71
59367;BME280;45163;47.690;11.770;2022-10-17T09:33:24;94100.75;;;28.33;35.52
59367;BME280;45163;47.690;11.770;2022-10-17T09:35:50;94098.03;;;28.09;35.56
59367;BME280;45163;47.690;11.770;2022-10-17T09:38:19;94092.06;;;28.37;37.36
59367;BME280;45163;47.690;11.770;2022-10-17T09:40:59;94095.25;;;29.56;35.18
59367;BME280;45163;47.690;11.770;2022-10-17T09:43:26;94089.88;;;30.32;34.02
59367;BME280;45163;47.690;11.770;2022-10-17T09:46:06;94105.50;;;30.07;31.87
59367;BME280;45163;47.690;11.770;2022-10-17T09:48:45;94097.06;;;30.54;33.13
59367;BME280;45163;47.690;11.770;2022-10-17T09:51:13;94093.75;;;30.97;32.18
59367;BME280;45163;47.690;11.770;2022-10-17T09:53:44;94099.31;;;31.53;31.19
59367;BME280;45163;47.690;11.770;2022-10-17T09:56:17;94099.75;;;31.93;30.13
59367;BME280;45163;47.690;11.770;2022-10-17T09:58:49;94098.25;;;32.28;29.32
59367;BME280;45163;47.690;11.770;2022-10-17T10:01:19;94095.19;;;32.70;28.78
59367;BME280;45163;47.690;11.770;2022-10-17T10:03:46;94096.63;;;32.40;26.60
59367;BME280;45163;47.690;11.770;2022-10-17T10:08:48;94087.91;;;33.43;25.53
59367;BME280;45163;47.690;11.770;2022-10-17T10:11:15;94091.81;;;34.02;26.63
59367;BME280;45163;47.690;11.770;2022-10-17T10:13:44;94090.75;;;34.37;25.06
59367;BME280;45163;47.690;11.770;2022-10-17T10:16:25;94089.47;;;34.71;23.42
59367;BME280;45163;47.690;11.770;2022-10-17T10:18:55;94097.38;;;33.61;23.22
59367;BME280;45163;47.690;11.770;2022-10-17T10:21:23;94092.91;;;34.22;24.46
59367;BME280;45163;47.690;11.770;2022-10-17T10:26:44;94089.16;;;34.92;24.09
59367;BME280;45163;47.690;11.770;2022-10-17T10:29:30;94094.25;;;35.51;21.78
59367;BME280;45163;47.690;11.770;2022-10-17T10:32:09;94098.09;;;34.40;20.00
59367;BME280;45163;47.690;11.770;2022-10-17T10:34:44;94096.72;;;34.09;20.96
59367;BME280;45163;47.690;11.770;2022-10-17T10:39:51;94103.78;;;33.24;24.35
59367;BME280;45163;47.690;11.770;2022-10-17T10:42:46;94106.81;;;32.51;25.38
59367;BME280;45163;47.690;11.770;2022-10-17T10:45:25;94104.44;;;32.27;25.81
59367;BME280;45163;47.690;11.770;2022-10-17T10:48:10;94105.75;;;32.26;24.82
59367;BME280;45163;47.690;11.770;2022-10-17T10:50:44;94106.94;;;32.38;25.16
59367;BME280;45163;47.690;11.770;2022-10-17T10:55:57;94105.25;;;31.98;25.82
59367;BME280;45163;47.690;11.770;2022-10-17T11:01:12;94106.34;;;32.91;25.52
59367;BME280;45163;47.690;11.770;2022-10-17T11:03:47;94114.94;;;31.54;28.24
59367;BME280;45163;47.690;11.770;2022-10-17T11:06:25;94103.22;;;31.78;28.35
59367;BME280;45163;47.690;11.770;2022-10-17T11:09:10;94105.66;;;31.74;29.75
59367;BME280;45163;47.690;11.770;2022-10-17T11:11:44;94109.91;;;31.39;29.37
59367;BME280;45163;47.690;11.770;2022-10-17T11:14:37;94102.38;;;31.62;27.09
59367;BME280;45163;47.690;11.770;2022-10-17T11:24:31;94104.88;;;32.97;24.41
59367;BME280;45163;47.690;11.770;2022-10-17T11:27:05;94094.28;;;32.90;24.05
59367;BME280;45163;47.690;11.770;2022-10-17T11:29:37;94103.53;;;32.91;24.35
59367;BME280;45163;47.690;11.770;2022-10-17T11:34:47;94112.94;;;32.78;25.02
59367;BME280;45163;47.690;11.770;2022-10-17T11:37:25;94104.13;;;32.97;25.36
59367;BME280;45163;47.690;11.770;2022-10-17T11:39:56;94106.56;;;33.01;23.82
59367;BME280;45163;47.690;11.770;2022-10-17T11:42:27;94109.59;;;33.10;24.43
59367;BME280;45163;47.690;11.770;2022-10-17T11:44:59;94106.38;;;32.39;25.64
59367;BME280;45163;47.690;11.770;2022-10-17T11:50:02;94106.25;;;32.09;26.14
59367;BME280;45163;47.690;11.770;2022-10-17T11:52:37;94111.72;;;32.14;27.34
59367;BME280;45163;47.690;11.770;2022-10-17T11:55:31;94113.56;;;33.07;26.37
59367;BME280;45163;47.690;11.770;2022-10-17T12:03:50;94114.72;;;33.19;24.79
59367;BME280;45163;47.690;11.770;2022-10-17T12:08:58;94103.41;;;33.50;24.44
59367;BME280;45163;47.690;11.770;2022-10-17T12:17:27;94105.66;;;33.13;24.67
59367;BME280;45163;47.690;11.770;2022-10-17T12:19:50;94111.47;;;33.00;24.97
59367;BME280;45163;47.690;11.770;2022-10-17T12:22:21;94106.19;;;33.96;23.65
59367;BME280;45163;47.690;11.770;2022-10-17T12:24:59;94107.16;;;33.07;24.35
59367;BME280;45163;47.690;11.770;2022-10-17T12:30:00;94103.81;;;32.13;24.80
59367;BME280;45163;47.690;11.770;2022-10-17T12:32:26;94106.44;;;32.55;24.90
59367;BME280;45163;47.690;11.770;2022-10-17T12:34:53;94102.63;;;33.04;23.91
59367;BME280;45163;47.690;11.770;2022-10-17T12:43:47;94107.97;;;32.56;25.27
59367;BME280;45163;47.690;11.770;2022-10-17T12:45:50;94107.41;;;32.57;25.35
59367;BME280;45163;47.690;11.770;2022-10-17T12:48:58;94108.13;;;32.50;25.64
59367;BME280;45163;47.690;11.770;2022-10-17T12:51:24;94114.50;;;32.43;24.69
59367;BME280;45163;47.690;11.770;2022-10-17T12:56:38;94101.59;;;32.70;24.44
59367;BME280;45163;47.690;11.770;2022-10-17T12:59:11;94109.09;;;32.53;24.98
59367;BME280;45163;47.690;11.770;2022-10-17T13:01:42;94103.28;;;32.66;24.83
59367;BME280;45163;47.690;11.770;2022-10-17T13:04:10;94103.22;;;33.33;24.74
59367;BME280;45163;47.690;11.770;2022-10-17T13:06:42;94100.22;;;33.61;23.56
59367;BME280;45163;47.690;11.770;2022-10-17T13:09:29;94101.28;;;33.81;24.07
59367;BME280;45163;47.690;11.770;2022-10-17T13:11:57;94095.66;;;33.35;24.56
59367;BME280;45163;47.690;11.770;2022-10-17T13:14:25;94102.06;;;33.05;24.73
59367;BME280;45163;47.690;11.770;2022-10-17T13:19:29;94100.16;;;32.92;24.72
59367;BME280;45163;47.690;11.770;2022-10-17T13:21:58;94089.63;;;33.69;23.55
59367;BME280;45163;47.690;11.770;2022-10-17T13:24:34;94093.22;;;33.55;24.02
59367;BME280;45163;47.690;11.770;2022-10-17T13:27:02;94090.75;;;33.51;23.77
59367;BME280;45163;47.690;11.770;2022-10-17T13:29:28;94093.88;;;32.71;25.08
59367;BME280;45163;47.690;11.770;2022-10-17T13:31:58;94095.59;;;32.82;24.42
59367;BME280;45163;47.690;11.770;2022-10-17T13:34:30;94096.94;;;32.37;25.79
59367;BME280;45163;47.690;11.770;2022-10-17T13:37:02;94090.38;;;33.39;24.36
59367;BME280;45163;47.690;11.770;2022-10-17T13:39:33;94097.00;;;32.44;25.07
59367;BME280;45163;47.690;11.770;2022-10-17T13:42:01;94095.34;;;32.57;26.61
59367;BME280;45163;47.690;11.770;2022-10-17T13:44:33;94096.03;;;33.16;25.72
59367;BME280;45163;47.690;11.770;2022-10-17T13:47:01;94103.22;;;31.78;27.70
59367;BME280;45163;47.690;11.770;2022-10-17T13:51:57;94098.47;;;29.87;29.60
59367;BME280;45163;47.690;11.770;2022-10-17T13:54:38;94093.72;;;28.96;30.56
59367;BME280;45163;47.690;11.770;2022-10-17T13:57:26;94098.19;;;27.97;32.37
59367;BME280;45163;47.690;11.770;2022-10-17T13:59:54;94097.09;;;27.82;32.56
59367;BME280;45163;47.690;11.770;2022-10-17T14:02:24;94095.91;;;27.96;32.66
59367;BME280;45163;47.690;11.770;2022-10-17T14:05:11;94102.63;;;27.63;33.83
59367;BME280;45163;47.690;11.770;2022-10-17T14:10:21;94093.63;;;27.26;34.41
59367;BME280;45163;47.690;11.770;2022-10-17T14:12:48;94104.50;;;26.75;34.97
59367;BME280;45163;47.690;11.770;2022-10-17T14:15:14;94107.38;;;26.94;34.69
59367;BME280;45163;47.690;11.770;2022-10-17T14:17:42;94105.22;;;26.40;34.78
59367;BME280;45163;47.690;11.770;2022-10-17T14:20:17;94103.16;;;26.41;34.20
59367;BME280;45163;47.690;11.770;2022-10-17T14:22:44;94104.03;;;26.24;34.86
59367;BME280;45163;47.690;11.770;2022-10-17T14:28:15;94106.56;;;25.75;35.49
59367;BME280;45163;47.690;11.770;2022-10-17T14:33:14;94112.03;;;25.23;36.75
59367;BME280;45163;47.690;11.770;2022-10-17T14:35:50;94107.97;;;24.96;36.76
59367;BME280;45163;47.690;11.770;2022-10-17T14:38:17;94107.97;;;24.96;36.67
59367;BME280;45163;47.690;11.770;2022-10-17T14:40:51;94107.16;;;24.33;37.90
59367;BME280;45163;47.690;11.770;2022-10-17T14:43:21;94102.59;;;24.36;38.05
59367;BME280;45163;47.690;11.770;2022-10-17T14:45:48;94105.09;;;24.28;38.45
59367;BME280;45163;47.690;11.770;2022-10-17T14:48:16;94108.72;;;24.40;38.89
59367;BME280;45163;47.690;11.770;2022-10-17T14:51:12;94114.22;;;24.18;39.07
59367;BME280;45163;47.690;11.770;2022-10-17T14:53:41;94110.66;;;24.06;36.94
59367;BME280;45163;47.690;11.770;2022-10-17T14:56:33;94111.59;;;23.86;39.14
59367;BME280;45163;47.690;11.770;2022-10-17T14:58:59;94125.03;;;23.33;40.01
59367;BME280;45163;47.690;11.770;2022-10-17T15:01:27;94122.31;;;23.50;39.55
59367;BME280;45163;47.690;11.770;2022-10-17T15:03:53;94119.66;;;23.24;40.29